Time;durP1;ratioP1;P1;durP2;ratioP2;P2;SDS_P1;SDS_P2;PMS_P1;PMS_P2;Temp;Humidity;BMP_temperature;BMP_pressure;BME280_temperature;BME280_humidity;BME280_pressure;Samples;Min_cycle;Max_cycle;Signal;HPM_P1;HPM_P2
2021/06/12 00:01:41;;;;;;;4.60;3.00;;;23.60;83.70;;;;;;5033019;28;20075;-63
2021/06/12 00:04:06;;;;;;;3.47;3.17;;;23.60;83.80;;;;;;5032487;28;20116;-62
2021/06/12 00:06:32;;;;;;;5.32;3.80;;;23.60;83.90;;;;;;5031198;28;20033;-62
2021/06/12 00:08:58;;;;;;;6.82;3.50;;;23.60;84.30;;;;;;5031185;28;20063;-64
2021/06/12 00:11:24;;;;;;;5.43;3.72;;;23.50;84.10;;;;;;5030482;28;20328;-61
2021/06/12 00:13:49;;;;;;;4.72;3.40;;;23.60;84.50;;;;;;5031957;28;20029;-62
2021/06/12 00:16:15;;;;;;;5.47;3.63;;;23.50;84.80;;;;;;5031831;28;20041;-62
2021/06/12 00:18:41;;;;;;;8.93;3.78;;;23.50;84.40;;;;;;5030681;28;20030;-62
2021/06/12 00:21:06;;;;;;;6.95;3.85;;;23.30;83.90;;;;;;5031629;28;20056;-61
2021/06/12 00:23:32;;;;;;;4.57;3.88;;;23.20;84.50;;;;;;5032070;28;20072;-61
2021/06/12 00:25:58;;;;;;;6.82;4.07;;;23.20;84.70;;;;;;5032519;28;20378;-61
2021/06/12 00:28:24;;;;;;;8.95;4.80;;;23.30;85.00;;;;;;5031829;28;20034;-61
2021/06/12 00:30:50;;;;;;;6.97;4.38;;;23.30;85.10;;;;;;5032382;28;20036;-62
2021/06/12 00:33:16;;;;;;;5.72;4.15;;;23.30;85.50;;;;;;5031237;28;20030;-61
2021/06/12 00:35:42;;;;;;;8.75;4.45;;;23.30;85.70;;;;;;5032087;28;20025;-61
2021/06/12 00:38:09;;;;;;;6.78;4.63;;;23.40;85.90;;;;;;5031561;28;20463;-63
2021/06/12 00:40:35;;;;;;;7.40;4.05;;;23.40;85.80;;;;;;5030332;28;20091;-60
2021/06/12 00:43:01;;;;;;;8.50;4.20;;;23.40;85.80;;;;;;5031908;28;20104;-60
2021/06/12 00:45:29;;;;;;;6.65;3.60;;;23.40;86.00;;;;;;5029682;28;20052;-59
2021/06/12 00:47:55;;;;;;;4.00;3.58;;;23.40;86.10;;;;;;5031822;28;20028;-59
2021/06/12 00:50:22;;;;;;;10.88;3.80;;;23.30;86.40;;;;;;5031223;28;20086;-61
2021/06/12 00:52:48;;;;;;;3.72;3.35;;;23.30;86.40;;;;;;5030039;28;20089;-60
2021/06/12 00:55:15;;;;;;;3.85;3.00;;;23.30;86.40;;;;;;5029664;28;20383;-60
2021/06/12 00:57:42;;;;;;;5.68;3.95;;;23.30;86.60;;;;;;5031952;28;20017;-60
2021/06/12 01:00:11;;;;;;;3.63;3.33;;;23.20;86.50;;;;;;5029781;28;20029;-61
2021/06/12 01:02:37;;;;;;;6.45;4.05;;;23.20;87.10;;;;;;5031630;28;20036;-60
2021/06/12 01:05:08;;;;;;;5.85;3.45;;;23.20;87.00;;;;;;5030411;28;20026;-60
2021/06/12 01:07:34;;;;;;;;;;;23.20;87.00;;;;;;5032173;28;20053;-60
2021/06/12 01:09:59;;;;;;;8.77;3.72;;;23.10;87.10;;;;;;5030086;28;20014;-59
2021/06/12 01:12:38;;;;;;;5.32;3.60;;;23.00;87.10;;;;;;5030844;28;20795;-60
2021/06/12 01:15:10;;;;;;;7.18;3.83;;;22.90;87.80;;;;;;5031827;28;20470;-59
2021/06/12 01:17:41;;;;;;;5.10;4.07;;;22.80;87.80;;;;;;5031703;28;20029;-59
2021/06/12 01:20:25;;;;;;;3.88;3.33;;;22.80;88.10;;;;;;5030837;28;20032;-66
2021/06/12 01:23:12;;;;;;;4.10;3.70;;;22.80;88.20;;;;;;5031489;28;20087;-60
2021/06/12 01:25:37;;;;;;;5.35;3.90;;;22.70;88.30;;;;;;5030142;28;20037;-60
2021/06/12 01:28:20;;;;;;;5.55;3.72;;;22.60;88.40;;;;;;5029983;28;20044;-60
2021/06/12 01:30:51;;;;;;;5.25;4.13;;;22.60;88.60;;;;;;5029930;28;20039;-60
2021/06/12 01:33:17;;;;;;;5.90;4.30;;;22.50;89.40;;;;;;5029429;28;20120;-60
2021/06/12 01:35:47;;;;;;;6.40;4.78;;;22.40;90.10;;;;;;5031748;28;20144;-60
2021/06/12 01:38:24;;;;;;;7.57;3.97;;;22.30;90.30;;;;;;5030600;28;20029;-60
2021/06/12 01:40:51;;;;;;;10.90;4.57;;;22.30;90.50;;;;;;5029934;28;20061;-61
2021/06/12 01:43:18;;;;;;;4.50;4.07;;;22.20;90.80;;;;;;5030581;28;20148;-60
2021/06/12 01:45:47;;;;;;;7.55;4.40;;;22.20;90.90;;;;;;5030209;28;20045;-60
2021/06/12 01:48:13;;;;;;;9.50;5.13;;;22.30;90.70;;;;;;5030314;28;20075;-61
2021/06/12 01:50:40;;;;;;;6.97;4.78;;;22.20;90.60;;;;;;5029436;28;20448;-60
2021/06/12 01:53:08;;;;;;;4.55;4.10;;;22.10;90.60;;;;;;5047626;28;20382;-61
2021/06/12 01:55:35;;;;;;;8.05;5.10;;;22.20;90.70;;;;;;5050873;28;20017;-61
2021/06/12 01:58:08;;;;;;;10.40;4.78;;;22.20;90.80;;;;;;5033069;28;20025;-61
2021/06/12 02:00:35;;;;;;;6.57;4.68;;;22.10;91.00;;;;;;5051324;28;20482;-61
2021/06/12 02:03:02;;;;;;;7.10;5.10;;;22.10;91.30;;;;;;5033432;28;20398;-61
2021/06/12 02:05:28;;;;;;;6.60;4.43;;;22.20;91.20;;;;;;5050254;28;20062;-61
2021/06/12 02:07:55;;;;;;;7.70;5.10;;;22.20;91.30;;;;;;5050857;28;20473;-61
2021/06/12 02:10:29;;;;;;;5.68;4.65;;;22.10;91.30;;;;;;5032162;28;20041;-61
2021/06/12 02:12:55;;;;;;;6.05;4.28;;;22.20;91.40;;;;;;5032777;28;20036;-62
2021/06/12 02:15:23;;;;;;;5.28;4.50;;;22.20;91.40;;;;;;5049952;28;20036;-61
2021/06/12 02:17:51;;;;;;;7.55;4.95;;;22.20;91.40;;;;;;5032550;28;20445;-61
2021/06/12 02:20:18;;;;;;;5.88;4.43;;;22.30;91.30;;;;;;5049798;28;20465;-61
2021/06/12 02:22:47;;;;;;;8.55;5.22;;;22.30;91.30;;;;;;5032168;28;20036;-61
2021/06/12 02:25:14;;;;;;;7.25;4.65;;;22.20;91.30;;;;;;5031825;28;20029;-61
2021/06/12 02:27:48;;;;;;;5.80;4.97;;;22.20;91.40;;;;;;5050297;28;20493;-61
2021/06/12 02:30:15;;;;;;;8.68;4.75;;;22.20;91.40;;;;;;5049467;28;20025;-61
2021/06/12 02:32:49;;;;;;;8.32;4.80;;;22.10;91.60;;;;;;5050072;28;20471;-60
2021/06/12 02:35:14;;;;;;;5.78;4.25;;;22.10;91.60;;;;;;5031283;28;20035;-61
2021/06/12 02:37:42;;;;;;;12.88;5.22;;;22.00;91.60;;;;;;5049885;28;20033;-60
2021/06/12 02:40:08;;;;;;;6.93;4.82;;;22.00;91.90;;;;;;5049849;28;20077;-60
2021/06/12 02:42:34;;;;;;;6.05;4.63;;;22.00;92.00;;;;;;5049365;28;20040;-60
2021/06/12 02:45:01;;;;;;;4.90;4.40;;;22.20;91.80;;;;;;5049960;28;20071;-60
2021/06/12 02:47:29;;;;;;;9.02;4.95;;;22.30;92.00;;;;;;5049218;28;20104;-60
2021/06/12 02:49:57;;;;;;;7.00;4.53;;;22.10;92.10;;;;;;5031872;28;20028;-60
2021/06/12 02:52:28;;;;;;;12.80;5.50;;;22.10;92.10;;;;;;5048716;28;20098;-60
2021/06/12 02:54:56;;;;;;;10.13;4.78;;;22.10;92.30;;;;;;5049614;28;20308;-60
2021/06/12 02:57:23;;;;;;;7.88;4.95;;;22.00;92.30;;;;;;5048908;28;20492;-60
2021/06/12 02:59:50;;;;;;;8.85;4.68;;;21.90;92.50;;;;;;5031685;28;20029;-60
2021/06/12 03:02:17;;;;;;;5.05;4.55;;;21.90;92.40;;;;;;5049240;28;20391;-61
2021/06/12 03:04:44;;;;;;;7.97;4.85;;;22.10;92.20;;;;;;5031913;28;20331;-60
2021/06/12 03:07:14;;;;;;;8.27;4.93;;;22.00;92.30;;;;;;5031895;28;20033;-60
2021/06/12 03:09:43;;;;;;;4.60;4.13;;;22.10;92.40;;;;;;5049406;28;20455;-60
2021/06/12 03:12:10;;;;;;;8.35;5.07;;;22.00;92.40;;;;;;5049660;28;20025;-61
2021/06/12 03:14:38;;;;;;;7.15;5.13;;;22.00;92.60;;;;;;5031288;28;20025;-59
2021/06/12 03:17:06;;;;;;;7.95;4.93;;;21.90;92.70;;;;;;5049795;28;20107;-59
2021/06/12 03:19:32;;;;;;;6.60;5.00;;;21.70;92.90;;;;;;5049201;28;20104;-60
2021/06/12 03:21:58;;;;;;;8.50;4.78;;;21.70;93.00;;;;;;5049292;28;20120;-60
2021/06/12 03:24:25;;;;;;;8.45;5.22;;;21.80;93.10;;;;;;5031097;28;20096;-60
2021/06/12 03:26:51;;;;;;;8.13;5.90;;;21.60;93.10;;;;;;5049754;28;20036;-59
2021/06/12 03:29:17;;;;;;;10.48;6.28;;;21.50;93.40;;;;;;5049313;28;20045;-60
2021/06/12 03:31:43;;;;;;;15.20;7.05;;;21.60;93.50;;;;;;5031760;28;20144;-59
2021/06/12 03:34:09;;;;;;;7.07;5.88;;;21.60;93.40;;;;;;5031747;28;20480;-59
2021/06/12 03:36:35;;;;;;;8.82;6.75;;;21.50;93.70;;;;;;5049028;28;20382;-59
2021/06/12 03:39:01;;;;;;;10.55;6.85;;;21.40;93.70;;;;;;5049681;28;20108;-60
2021/06/12 03:41:27;;;;;;;10.57;7.20;;;21.40;93.90;;;;;;5030597;28;20052;-63
2021/06/12 03:43:53;;;;;;;13.45;6.28;;;21.50;93.90;;;;;;5049599;28;20025;-60
2021/06/12 03:46:19;;;;;;;12.43;6.55;;;21.40;94.10;;;;;;5030956;28;20120;-61
2021/06/12 03:48:47;;;;;;;10.48;6.22;;;21.50;94.20;;;;;;5031841;28;20360;-60
2021/06/12 03:51:15;;;;;;;8.65;6.15;;;21.60;94.00;;;;;;5049053;28;20033;-60
2021/06/12 03:53:44;;;;;;;10.90;7.20;;;21.70;93.90;;;;;;5031431;28;20037;-61
2021/06/12 03:56:25;;;;;;;6.57;5.60;;;21.80;94.00;;;;;;5049457;28;20021;-61
2021/06/12 03:58:51;;;;;;;7.45;6.05;;;21.90;93.80;;;;;;5031639;28;20021;-61
2021/06/12 04:01:19;;;;;;;9.80;6.13;;;21.90;93.70;;;;;;5048906;28;20028;-61
2021/06/12 04:03:45;;;;;;;11.45;7.63;;;21.90;93.80;;;;;;5031618;28;20108;-60
2021/06/12 04:06:12;;;;;;;9.55;6.18;;;21.80;94.00;;;;;;5049344;28;20028;-61
2021/06/12 04:08:38;;;;;;;9.35;6.28;;;21.70;94.10;;;;;;5049370;28;20021;-61
2021/06/12 04:11:05;;;;;;;9.75;7.32;;;21.70;94.30;;;;;;5052898;28;20029;-61
2021/06/12 04:13:31;;;;;;;11.05;6.75;;;21.70;94.20;;;;;;5052120;28;20028;-61
2021/06/12 04:15:57;;;;;;;9.23;6.60;;;21.70;94.30;;;;;;5052875;28;20025;-61
2021/06/12 04:18:23;;;;;;;11.98;6.40;;;21.60;94.40;;;;;;5034442;28;20469;-61
2021/06/12 04:20:49;;;;;;;8.65;6.47;;;21.60;94.70;;;;;;5034771;28;20525;-61
2021/06/12 04:23:16;;;;;;;13.05;6.15;;;21.50;94.90;;;;;;5052480;28;20116;-61
2021/06/12 04:25:42;;;;;;;9.82;6.60;;;21.60;94.90;;;;;;5051646;28;20029;-61
2021/06/12 04:28:08;;;;;;;9.10;6.25;;;21.50;95.40;;;;;;5052344;28;20029;-60
2021/06/12 04:30:34;;;;;;;7.20;5.47;;;21.60;95.00;;;;;;5051709;28;20428;-61
2021/06/12 04:33:01;;;;;;;7.80;4.95;;;21.70;94.50;;;;;;5034242;28;20036;-61
2021/06/12 04:35:30;;;;;;;7.88;4.20;;;21.80;94.60;;;;;;5051617;28;20032;-61
2021/06/12 04:38:00;;;;;;;10.40;5.03;;;22.00;94.00;;;;;;5034320;28;20490;-61
2021/06/12 04:40:28;;;;;;;5.80;3.55;;;21.90;94.10;;;;;;5051953;28;20040;-62
2021/06/12 04:42:53;;;;;;;4.05;2.72;;;22.00;93.60;;;;;;5034412;28;20120;-62
2021/06/12 04:45:19;;;;;;;5.45;3.30;;;22.00;93.40;;;;;;5051874;28;20378;-63
2021/06/12 04:47:45;;;;;;;4.88;2.85;;;22.10;93.20;;;;;;5052330;28;20061;-61
2021/06/12 04:50:11;;;;;;;4.95;2.67;;;22.00;93.40;;;;;;5052362;28;20044;-62
2021/06/12 04:52:37;;;;;;;3.78;2.78;;;22.00;93.00;;;;;;5030030;28;20053;-61
2021/06/12 04:55:05;;;;;;;7.93;3.25;;;22.10;93.30;;;;;;5030987;28;20029;-61
2021/06/12 04:57:31;;;;;;;7.72;3.20;;;22.10;93.20;;;;;;5030257;28;20029;-60
2021/06/12 04:59:56;;;;;;;5.13;3.30;;;22.10;93.50;;;;;;5032288;28;20109;-61
2021/06/12 05:02:22;;;;;;;2.97;2.67;;;22.10;93.60;;;;;;5031508;28;20120;-61
2021/06/12 05:04:48;;;;;;;5.22;3.30;;;22.10;93.50;;;;;;5030654;28;20029;-61
2021/06/12 05:07:13;;;;;;;7.15;3.92;;;22.20;93.60;;;;;;5031810;28;20022;-61
2021/06/12 05:09:39;;;;;;;5.57;3.30;;;22.00;93.80;;;;;;5031830;28;20159;-59
2021/06/12 05:12:05;;;;;;;7.65;4.30;;;22.10;93.70;;;;;;5031579;28;20026;-61
2021/06/12 05:14:31;;;;;;;8.85;4.00;;;22.10;94.00;;;;;;5031041;28;20223;-61
2021/06/12 05:16:59;;;;;;;2.95;2.60;;;22.00;94.10;;;;;;5032255;28;20178;-60
2021/06/12 05:19:25;;;;;;;8.40;3.75;;;22.10;94.00;;;;;;5029742;28;20029;-61
2021/06/12 05:21:50;;;;;;;6.82;3.88;;;22.20;93.90;;;;;;5029178;28;20428;-61
2021/06/12 05:24:16;;;;;;;8.80;3.83;;;22.30;93.80;;;;;;5031808;28;20056;-61
2021/06/12 05:26:42;;;;;;;5.95;3.67;;;22.40;93.80;;;;;;5029705;28;20116;-61
2021/06/12 05:29:07;;;;;;;4.15;3.72;;;22.50;93.60;;;;;;5032029;28;20029;-61
2021/06/12 05:31:33;;;;;;;6.95;4.57;;;22.60;93.70;;;;;;5030706;28;20057;-61
2021/06/12 05:33:59;;;;;;;7.90;4.57;;;22.60;93.90;;;;;;5031641;28;20022;-61
2021/06/12 05:36:25;;;;;;;8.50;5.00;;;22.70;93.50;;;;;;5030984;28;20391;-61
2021/06/12 05:38:51;;;;;;;6.20;4.82;;;22.70;93.40;;;;;;5030095;28;20048;-62
2021/06/12 05:41:17;;;;;;;6.47;4.30;;;22.70;93.30;;;;;;5030096;28;20487;-61
2021/06/12 05:43:43;;;;;;;4.68;4.20;;;22.80;93.40;;;;;;5030971;28;20041;-62
2021/06/12 05:46:08;;;;;;;5.45;4.78;;;23.00;93.40;;;;;;5029904;28;20026;-61
2021/06/12 05:48:34;;;;;;;8.23;4.82;;;23.10;92.60;;;;;;5030429;28;20028;-60
2021/06/12 05:51:01;;;;;;;10.05;4.78;;;23.00;92.60;;;;;;5029660;28;20036;-60
2021/06/12 05:53:28;;;;;;;8.63;4.97;;;23.00;92.60;;;;;;5029359;28;20062;-61
2021/06/12 05:55:54;;;;;;;7.72;4.45;;;22.90;92.70;;;;;;5029592;28;20090;-60
2021/06/12 05:58:20;;;;;;;7.68;4.75;;;23.10;92.70;;;;;;5029884;28;20264;-60
2021/06/12 06:00:46;;;;;;;6.07;4.70;;;23.20;92.60;;;;;;5030461;28;20033;-61
2021/06/12 06:03:11;;;;;;;6.50;4.30;;;23.30;92.50;;;;;;5029969;28;20087;-60
2021/06/12 06:05:37;;;;;;;6.85;5.03;;;23.40;92.20;;;;;;5030588;28;20378;-61
2021/06/12 06:08:03;;;;;;;8.70;4.75;;;23.30;92.30;;;;;;5031013;28;20030;-61
2021/06/12 06:10:28;;;;;;;4.93;4.43;;;23.10;92.50;;;;;;5030260;28;20033;-61
2021/06/12 06:12:54;;;;;;;8.65;5.22;;;23.20;92.30;;;;;;5030878;28;20040;-61
2021/06/12 06:15:20;;;;;;;7.88;4.53;;;23.20;92.10;;;;;;5030880;28;20041;-61
2021/06/12 06:17:46;;;;;;;4.70;4.10;;;23.40;92.30;;;;;;5029998;28;20076;-61
2021/06/12 06:20:13;;;;;;;5.25;4.75;;;23.40;92.50;;;;;;5030471;28;20053;-61
2021/06/12 06:22:39;;;;;;;6.63;5.07;;;23.60;92.20;;;;;;5028711;28;20116;-61
2021/06/12 06:25:07;;;;;;;7.18;5.32;;;23.60;92.20;;;;;;5029215;28;20079;-60
2021/06/12 06:27:33;;;;;;;10.48;5.80;;;23.70;92.10;;;;;;5030122;28;20167;-61
2021/06/12 06:29:59;;;;;;;8.05;5.97;;;23.10;93.10;;;;;;5030782;28;20021;-62
2021/06/12 06:32:25;;;;;;;12.48;5.57;;;23.30;93.00;;;;;;5029838;28;20467;-69
2021/06/12 06:34:51;;;;;;;7.65;5.05;;;23.30;92.90;;;;;;5028896;28;20052;-61
2021/06/12 06:37:17;;;;;;;11.13;4.38;;;23.10;93.10;;;;;;5028211;28;20034;-60
2021/06/12 06:39:42;;;;;;;8.85;4.55;;;23.20;93.10;;;;;;5029333;28;20029;-61
2021/06/12 06:42:08;;;;;;;6.28;4.55;;;23.20;93.20;;;;;;5029148;28;20075;-60
2021/06/12 06:44:36;;;;;;;5.75;4.43;;;23.50;93.30;;;;;;5029974;28;20021;-60
2021/06/12 06:47:06;;;;;;;7.15;4.18;;;23.70;93.10;;;;;;5028894;28;20155;-60
2021/06/12 06:49:34;;;;;;;5.22;4.00;;;23.80;92.80;;;;;;5029600;28;20074;-60
2021/06/12 06:52:00;;;;;;;11.93;5.28;;;23.90;93.00;;;;;;5028695;28;20094;-61
2021/06/12 06:54:26;;;;;;;7.72;5.43;;;23.90;92.90;;;;;;5028468;28;20085;-70
2021/06/12 06:56:52;;;;;;;6.18;4.93;;;23.60;92.80;;;;;;5030686;28;20108;-61
2021/06/12 06:59:18;;;;;;;8.10;4.65;;;23.50;93.10;;;;;;5028708;28;20145;-61
2021/06/12 07:01:44;;;;;;;6.35;4.70;;;23.80;93.20;;;;;;5040244;28;20580;-61
2021/06/12 07:04:09;;;;;;;6.20;4.20;;;23.90;93.00;;;;;;5030109;28;20112;-61
2021/06/12 07:06:35;;;;;;;7.45;4.15;;;24.20;92.50;;;;;;5028131;28;20348;-68
2021/06/12 07:09:01;;;;;;;6.68;4.28;;;24.40;92.40;;;;;;5029171;28;20048;-67
2021/06/12 07:11:27;;;;;;;9.00;4.60;;;24.50;92.60;;;;;;5028105;28;20075;-77
2021/06/12 07:13:53;;;;;;;6.95;4.43;;;24.50;92.00;;;;;;5029653;28;20029;-68
2021/06/12 07:16:19;;;;;;;11.60;5.05;;;24.60;91.80;;;;;;5028544;28;20025;-68
2021/06/12 07:18:44;;;;;;;5.22;4.40;;;24.80;91.30;;;;;;5029168;28;20498;-68
2021/06/12 07:21:10;;;;;;;6.30;4.18;;;24.90;91.00;;;;;;5029751;28;20030;-67
2021/06/12 07:23:36;;;;;;;7.72;4.72;;;25.00;91.00;;;;;;5031010;28;20507;-62
2021/06/12 07:26:02;;;;;;;11.15;5.25;;;25.10;90.60;;;;;;5038571;28;20071;-61
2021/06/12 07:28:28;;;;;;;9.55;5.38;;;25.10;90.20;;;;;;5028641;28;20025;-50
2021/06/12 07:30:53;;;;;;;6.10;3.65;;;24.90;90.70;;;;;;5038855;28;20293;-47
2021/06/12 07:33:19;;;;;;;5.28;4.35;;;25.30;91.60;;;;;;5041167;28;20469;-49
2021/06/12 07:35:45;;;;;;;9.52;5.63;;;25.50;90.80;;;;;;5026851;28;20036;-46
2021/06/12 07:38:12;;;;;;;13.30;6.32;;;25.50;90.00;;;;;;5027334;28;20120;-48
2021/06/12 07:40:39;;;;;;;11.15;4.70;;;25.40;90.00;;;;;;5025021;28;20382;-48
2021/06/12 07:43:05;;;;;;;7.20;4.80;;;25.40;90.90;;;;;;5028767;28;20033;-49
2021/06/12 07:45:32;;;;;;;7.53;5.45;;;25.50;90.20;;;;;;5039293;28;20082;-55
2021/06/12 07:47:57;;;;;;;8.95;4.47;;;25.50;90.40;;;;;;5045219;28;20048;-53
2021/06/12 07:50:25;;;;;;;7.68;6.35;;;25.60;90.40;;;;;;5036891;28;20021;-48
2021/06/12 07:52:51;;;;;;;6.47;5.07;;;25.70;88.70;;;;;;5043777;28;20442;-48
2021/06/12 07:55:17;;;;;;;11.25;5.47;;;25.80;90.50;;;;;;5050967;28;20020;-49
2021/06/12 07:57:43;;;;;;;8.77;5.53;;;25.80;90.00;;;;;;5032627;28;20366;-48
2021/06/12 08:00:10;;;;;;;14.95;6.43;;;25.80;89.90;;;;;;5052984;28;20025;-64
2021/06/12 08:02:36;;;;;;;10.10;5.15;;;25.80;87.90;;;;;;5032484;28;20033;-64
2021/06/12 08:05:02;;;;;;;32.50;9.13;;;25.80;89.70;;;;;;5044330;28;20024;-65
2021/06/12 08:07:28;;;;;;;11.07;6.10;;;25.90;87.70;;;;;;5071818;28;20025;-64
2021/06/12 08:09:55;;;;;;;15.48;6.63;;;25.50;88.20;;;;;;5050725;28;20017;-65
2021/06/12 08:12:21;;;;;;;20.35;7.32;;;25.60;89.30;;;;;;5054202;28;20077;-66
2021/06/12 08:14:51;;;;;;;10.10;5.13;;;25.70;89.00;;;;;;5054027;28;20028;-65
2021/06/12 08:17:17;;;;;;;13.18;6.72;;;25.90;88.70;;;;;;5037749;28;20123;-66
2021/06/12 08:19:42;;;;;;;10.55;6.57;;;25.80;88.30;;;;;;5053493;28;20509;-66
2021/06/12 08:22:11;;;;;;;32.80;6.28;;;25.90;88.60;;;;;;5071305;28;20060;-66
2021/06/12 08:24:37;;;;;;;8.40;5.82;;;26.10;88.40;;;;;;5070448;28;20086;-65
2021/06/12 08:27:03;;;;;;;10.38;6.20;;;26.20;88.50;;;;;;5053068;28;20454;-65
2021/06/12 08:29:29;;;;;;;15.50;9.40;;;26.10;87.90;;;;;;5052891;28;20036;-65
2021/06/12 08:31:56;;;;;;;13.50;7.90;;;25.90;87.60;;;;;;5051819;28;20035;-66
2021/06/12 08:34:22;;;;;;;12.95;6.55;;;26.00;88.30;;;;;;5070776;28;20025;-65
2021/06/12 08:36:49;;;;;;;14.13;8.02;;;26.30;88.30;;;;;;5046930;28;20388;-64
2021/06/12 08:39:15;;;;;;;12.98;6.60;;;26.60;87.00;;;;;;5033549;28;20021;-64
2021/06/12 08:41:41;;;;;;;12.52;6.45;;;26.80;87.00;;;;;;5032435;28;20462;-66
2021/06/12 08:44:10;;;;;;;9.63;6.10;;;26.80;86.90;;;;;;5051422;28;20049;-65
2021/06/12 08:46:37;;;;;;;9.25;4.82;;;27.10;85.70;;;;;;5032329;28;20072;-52
2021/06/12 08:49:03;;;;;;;11.32;6.85;;;27.20;86.20;;;;;;5051200;28;20060;-52
2021/06/12 08:51:29;;;;;;;10.57;5.80;;;27.30;84.80;;;;;;5016331;28;20474;-51
2021/06/12 08:53:55;;;;;;;13.20;6.55;;;27.30;85.00;;;;;;5049962;28;20216;-58
2021/06/12 08:56:20;;;;;;;9.45;6.63;;;26.80;85.90;;;;;;5032539;28;20554;-53
2021/06/12 08:58:46;;;;;;;13.10;7.15;;;26.60;86.30;;;;;;5050508;28;20039;-56
2021/06/12 09:01:12;;;;;;;9.82;6.55;;;26.80;87.30;;;;;;5067727;28;20063;-55
2021/06/12 09:03:44;;;;;;;10.93;5.30;;;26.70;86.70;;;;;;5052346;28;20047;-55
2021/06/12 09:06:12;;;;;;;12.40;6.50;;;26.70;87.10;;;;;;5071108;28;20025;-52
2021/06/12 09:08:41;;;;;;;6.82;5.47;;;26.40;86.30;;;;;;5068731;28;20259;-50
2021/06/12 09:11:13;;;;;;;7.93;4.43;;;26.30;85.80;;;;;;5071001;28;20027;-51
2021/06/12 09:13:57;;;;;;;7.82;4.95;;;26.60;85.50;;;;;;5071247;28;20028;-49
2021/06/12 09:16:29;;;;;;;7.82;4.53;;;26.60;85.90;;;;;;5062136;28;20017;-49
2021/06/12 09:19:17;;;;;;;5.50;4.18;;;26.80;86.30;;;;;;5041117;28;20051;-52
2021/06/12 09:22:03;;;;;;;15.50;4.10;;;26.90;84.80;;;;;;5068252;28;20044;-52
2021/06/12 09:24:38;;;;;;;5.40;4.85;;;27.00;85.30;;;;;;5048902;28;20084;-52
2021/06/12 09:27:11;;;;;;;5.57;3.70;;;26.90;84.10;;;;;;5066672;28;20035;-52
2021/06/12 09:29:51;;;;;;;6.07;3.53;;;27.00;84.00;;;;;;5073507;28;20036;-50
2021/06/12 09:32:19;;;;;;;5.07;3.37;;;27.20;82.60;;;;;;5071834;28;20500;-50
2021/06/12 09:34:47;;;;;;;4.55;3.45;;;27.30;82.70;;;;;;5069483;28;20123;-51
2021/06/12 09:37:16;;;;;;;4.43;3.83;;;27.70;80.90;;;;;;5070874;28;20032;-49
2021/06/12 09:39:43;;;;;;;5.90;3.38;;;27.80;80.60;;;;;;5051959;28;20021;-51
2021/06/12 09:42:09;;;;;;;5.45;3.50;;;28.00;81.00;;;;;;5070398;28;20092;-51
2021/06/12 09:44:37;;;;;;;3.97;3.22;;;28.20;80.60;;;;;;5066041;28;20175;-56
2021/06/12 09:47:11;;;;;;;4.97;3.05;;;28.20;80.30;;;;;;5040046;28;20031;-49
2021/06/12 09:49:39;;;;;;;4.40;3.10;;;28.10;80.40;;;;;;5070075;28;20035;-57
2021/06/12 09:52:06;;;;;;;5.88;2.80;;;28.10;79.50;;;;;;5051942;28;20052;-49
2021/06/12 09:54:41;;;;;;;7.93;3.35;;;27.80;79.90;;;;;;5048821;28;20119;-49
2021/06/12 09:57:08;;;;;;;5.35;2.85;;;27.80;80.40;;;;;;5068176;28;20039;-50
2021/06/12 09:59:46;;;;;;;6.90;2.67;;;28.00;79.80;;;;;;5051448;28;20025;-50
2021/06/12 10:02:12;;;;;;;6.10;3.05;;;28.30;78.80;;;;;;5032531;28;20060;-50
2021/06/12 10:04:56;;;;;;;4.88;2.40;;;28.40;78.00;;;;;;5060539;28;20048;-50
2021/06/12 10:07:23;;;;;;;8.48;2.55;;;28.40;76.90;;;;;;5066383;28;20028;-50
2021/06/12 10:09:51;;;;;;;6.82;2.75;;;28.40;76.10;;;;;;5041675;28;20159;-51
2021/06/12 10:12:17;;;;;;;3.50;2.58;;;28.60;77.00;;;;;;5055857;28;20047;-63
2021/06/12 10:14:44;;;;;;;3.55;2.55;;;28.50;75.80;;;;;;5066312;28;20020;-63
2021/06/12 10:17:12;;;;;;;2.08;1.83;;;27.90;75.70;;;;;;5052037;28;20462;-62
2021/06/12 10:19:41;;;;;;;5.55;2.10;;;27.90;75.80;;;;;;5035606;28;20040;-70
2021/06/12 10:22:11;;;;;;;1.98;1.80;;;28.00;77.00;;;;;;5031900;28;20050;-64
2021/06/12 10:24:41;;;;;;;3.38;1.83;;;28.40;76.30;;;;;;5025525;28;20483;-70
2021/06/12 10:27:14;;;;;;;4.47;2.08;;;28.40;76.00;;;;;;5032488;28;20083;-63
2021/06/12 10:29:42;;;;;;;6.18;1.65;;;28.40;77.10;;;;;;5032313;28;20029;-64
2021/06/12 10:32:09;;;;;;;4.82;1.42;;;28.50;75.80;;;;;;5032722;28;20127;-65
2021/06/12 10:34:36;;;;;;;4.13;1.42;;;28.50;75.40;;;;;;5032361;28;20033;-62
2021/06/12 10:37:06;;;;;;;1.52;1.33;;;28.40;75.60;;;;;;5031375;28;20055;-63
2021/06/12 10:39:37;;;;;;;1.98;1.25;;;28.30;74.80;;;;;;5049906;28;20025;-63
2021/06/12 10:42:15;;;;;;;2.65;1.60;;;28.60;75.80;;;;;;5049833;28;20127;-63
2021/06/12 10:44:43;;;;;;;3.70;1.45;;;28.90;75.30;;;;;;5049182;28;20056;-63
2021/06/12 10:47:09;;;;;;;3.25;1.23;;;29.20;74.40;;;;;;5031706;28;20056;-63
2021/06/12 10:49:36;;;;;;;3.92;1.45;;;29.40;72.50;;;;;;5050018;28;20056;-63
2021/06/12 10:52:04;;;;;;;5.00;1.23;;;29.40;73.60;;;;;;5030645;28;20077;-63
2021/06/12 10:54:36;;;;;;;2.58;0.90;;;29.40;71.60;;;;;;5031946;28;20020;-63
2021/06/12 10:57:14;;;;;;;2.60;1.27;;;29.30;71.60;;;;;;5031199;28;20025;-63
2021/06/12 10:59:52;;;;;;;0.85;0.70;;;29.30;71.50;;;;;;5031068;28;20128;-67
2021/06/12 11:02:31;;;;;;;2.67;1.00;;;29.20;71.60;;;;;;5031957;28;20087;-61
2021/06/12 11:05:02;;;;;;;0.77;0.55;;;29.00;71.60;;;;;;5031071;28;20021;-64
2021/06/12 11:07:38;;;;;;;2.72;0.93;;;28.90;72.00;;;;;;5032040;28;20029;-63
2021/06/12 11:10:13;;;;;;;1.33;0.77;;;29.00;72.20;;;;;;5031071;28;20031;-62
2021/06/12 11:12:45;;;;;;;1.38;0.80;;;29.10;71.30;;;;;;5032111;28;20029;-64
2021/06/12 11:15:13;;;;;;;1.10;0.68;;;29.00;70.40;;;;;;5031544;28;20025;-63
2021/06/12 11:17:41;;;;;;;0.88;0.82;;;28.90;71.30;;;;;;5031597;28;20087;-63
2021/06/12 11:20:07;;;;;;;2.08;0.82;;;28.80;70.80;;;;;;5034697;28;20162;-64
2021/06/12 11:23:03;;;;;;;6.15;1.55;;;28.70;71.00;;;;;;5053668;28;20029;-63
2021/06/12 11:25:28;;;;;;;2.35;1.15;;;28.90;71.60;;;;;;5022509;28;20114;-63
2021/06/12 11:28:18;;;;;;;0.95;0.80;;;28.90;70.80;;;;;;5034769;28;20386;-63
2021/06/12 11:30:44;;;;;;;2.13;1.73;;;29.10;70.10;;;;;;5034847;28;20030;-63
2021/06/12 11:33:14;;;;;;;1.88;1.40;;;29.10;69.70;;;;;;5053479;28;20055;-63
2021/06/12 11:35:52;;;;;;;;;;;29.00;69.10;;;;;;5036098;28;20029;-63
2021/06/12 11:38:38;;;;;;;0.70;0.70;;;29.00;69.90;;;;;;5035313;28;19927;-62
2021/06/12 11:41:09;;;;;;;2.00;0.90;;;28.60;68.60;;;;;;5052817;28;20025;-63
2021/06/12 11:43:35;;;;;;;1.35;0.95;;;28.50;69.30;;;;;;5034637;28;20108;-62
2021/06/12 11:46:04;;;;;;;3.80;1.23;;;28.50;68.80;;;;;;5034599;28;20241;-62
2021/06/12 11:48:35;;;;;;;2.47;0.85;;;28.50;68.70;;;;;;5053478;28;20025;-62
2021/06/12 11:51:25;;;;;;;1.23;1.13;;;28.50;69.50;;;;;;5052289;28;20104;-61
2021/06/12 11:54:09;;;;;;;2.28;1.27;;;28.60;69.20;;;;;;5034141;28;20095;-62
2021/06/12 11:56:59;;;;;;;0.88;0.88;;;28.30;71.20;;;;;;5034898;28;20068;-63
2021/06/12 11:59:31;;;;;;;3.67;1.33;;;28.00;71.00;;;;;;5034978;28;20032;-63
2021/06/12 12:02:01;;;;;;;2.78;1.90;;;27.70;72.00;;;;;;5034460;28;20029;-63
2021/06/12 12:04:40;;;;;;;1.67;1.57;;;27.60;72.20;;;;;;5053084;28;20025;-63
2021/06/12 12:07:08;;;;;;;1.60;1.50;;;27.40;73.20;;;;;;5034001;28;20482;-63
2021/06/12 12:09:35;;;;;;;1.92;1.40;;;27.40;72.90;;;;;;5052402;28;20040;-64
2021/06/12 12:12:02;;;;;;;1.80;1.30;;;27.40;71.60;;;;;;5052100;28;20366;-63
2021/06/12 12:14:39;;;;;;;1.48;0.98;;;27.30;71.00;;;;;;5034395;28;20466;-63
2021/06/12 12:17:27;;;;;;;3.15;1.15;;;27.10;71.60;;;;;;5033785;28;20021;-62
2021/06/12 12:20:08;;;;;;;2.55;0.95;;;27.20;72.00;;;;;;5033146;28;20040;-61
2021/06/12 12:22:48;;;;;;;;;;;27.40;70.50;;;;;;5053414;28;20037;-64
2021/06/12 12:25:17;;;;;;;3.93;0.93;;;27.30;69.00;;;;;;5052777;28;19928;-62
2021/06/12 12:27:44;;;;;;;4.63;1.00;;;27.30;69.50;;;;;;5034793;28;20127;-62
2021/06/12 12:30:11;;;;;;;0.73;0.50;;;27.30;69.30;;;;;;5051869;28;20032;-63
2021/06/12 12:32:36;;;;;;;5.45;1.27;;;27.30;68.90;;;;;;5052142;28;20490;-63
2021/06/12 12:35:16;;;;;;;1.75;0.82;;;27.30;69.80;;;;;;5033587;28;20125;-63
2021/06/12 12:37:41;;;;;;;3.28;0.85;;;27.30;70.10;;;;;;5052559;28;20025;-63
2021/06/12 12:40:22;;;;;;;1.10;0.70;;;27.20;69.60;;;;;;5033469;28;20025;-63
2021/06/12 12:43:03;;;;;;;4.53;0.85;;;27.00;70.10;;;;;;5033581;28;20044;-62
2021/06/12 12:45:29;;;;;;;3.10;1.38;;;26.80;70.00;;;;;;5034164;28;20041;-62
2021/06/12 12:47:55;;;;;;;2.67;1.15;;;26.70;70.70;;;;;;4989614;28;20026;-63
2021/06/12 12:50:21;;;;;;;3.22;0.80;;;26.80;70.60;;;;;;4989912;28;20480;-64
2021/06/12 12:53:05;;;;;;;1.73;1.00;;;26.90;71.40;;;;;;4989178;28;20109;-64